createdAt,value
2023-07-27T00:00:11.959Z,1.80
2023-07-27T00:03:01.565Z,2.20
2023-07-27T00:05:31.648Z,1.80
2023-07-27T00:08:00.834Z,1.90
2023-07-27T00:10:30.992Z,2.40
2023-07-27T00:13:00.922Z,2.60
2023-07-27T00:15:30.485Z,2.20
2023-07-27T00:17:59.801Z,1.90
2023-07-27T00:20:30.173Z,2.20
2023-07-27T00:22:59.890Z,2.00
2023-07-27T00:25:29.557Z,2.10
2023-07-27T00:28:00.911Z,1.90
2023-07-27T00:30:30.786Z,1.80
2023-07-27T00:33:00.223Z,2.30
2023-07-27T00:35:29.833Z,1.80
2023-07-27T00:37:58.835Z,2.10
2023-07-27T00:40:27.752Z,2.20
2023-07-27T00:42:56.894Z,2.00
2023-07-27T00:45:28.133Z,1.60
2023-07-27T00:47:57.115Z,1.80
2023-07-27T00:50:25.990Z,1.80
2023-07-27T00:52:55.012Z,1.60
2023-07-27T00:55:24.223Z,1.60
2023-07-27T00:57:53.285Z,1.30
2023-07-27T01:00:22.811Z,1.50
2023-07-27T01:02:51.751Z,1.70
2023-07-27T01:05:21.563Z,1.40
2023-07-27T01:07:50.412Z,1.40
2023-07-27T01:10:25.064Z,1.30
2023-07-27T01:13:09.600Z,1.20
2023-07-27T01:15:45.719Z,1.60
2023-07-27T01:18:32.735Z,1.20
2023-07-27T01:21:35.761Z,1.30
2023-07-27T01:24:19.473Z,1.70
2023-07-27T01:27:09.808Z,1.50
2023-07-27T01:30:07.079Z,1.20
2023-07-27T01:32:41.027Z,1.20
2023-07-27T01:35:17.085Z,1.40
2023-07-27T01:37:51.088Z,1.40
2023-07-27T01:40:22.486Z,1.40
2023-07-27T01:42:53.336Z,1.60
2023-07-27T01:45:25.093Z,1.40
2023-07-27T01:47:56.916Z,1.40
2023-07-27T01:50:26.432Z,1.30
2023-07-27T01:52:58.916Z,1.30
2023-07-27T01:55:30.321Z,1.60
2023-07-27T01:58:04.268Z,1.50
2023-07-27T02:00:34.186Z,1.20
2023-07-27T02:03:04.084Z,1.50
2023-07-27T02:05:33.918Z,1.30
2023-07-27T02:08:07.680Z,1.50
2023-07-27T02:10:42.761Z,1.40
2023-07-27T02:13:29.591Z,1.50
2023-07-27T02:16:21.738Z,1.50
2023-07-27T02:18:52.518Z,1.70
2023-07-27T02:21:23.292Z,1.40
2023-07-27T02:23:54.733Z,1.50
2023-07-27T02:26:24.034Z,1.80
2023-07-27T02:28:53.526Z,1.60
2023-07-27T02:31:22.262Z,1.40
2023-07-27T02:33:52.029Z,1.70
2023-07-27T02:36:22.137Z,1.30
2023-07-27T02:38:50.890Z,1.60
2023-07-27T02:41:19.406Z,1.40
2023-07-27T02:43:49.230Z,1.50
2023-07-27T02:46:20.783Z,1.80
2023-07-27T02:48:51.731Z,2.80
2023-07-27T02:51:21.350Z,1.80
2023-07-27T02:53:50.092Z,1.70
2023-07-27T02:56:21.781Z,1.90
2023-07-27T02:58:50.589Z,1.60
2023-07-27T03:01:20.303Z,1.70
2023-07-27T03:03:50.919Z,1.80
2023-07-27T03:06:19.859Z,1.50
2023-07-27T03:08:48.921Z,1.90
2023-07-27T03:11:17.886Z,1.80
2023-07-27T03:13:47.050Z,1.60
2023-07-27T03:16:16.225Z,1.90
2023-07-27T03:18:44.722Z,1.70
2023-07-27T03:21:13.957Z,2.00
2023-07-27T03:23:42.619Z,1.70
2023-07-27T03:26:13.186Z,2.00
2023-07-27T03:28:45.354Z,1.70
2023-07-27T03:31:30.651Z,2.00
2023-07-27T03:34:00.941Z,1.80
2023-07-27T03:36:32.212Z,1.80
2023-07-27T03:39:03.287Z,1.60
2023-07-27T03:41:32.967Z,1.80
2023-07-27T03:44:01.514Z,1.50
2023-07-27T03:46:32.087Z,1.60
2023-07-27T03:49:03.249Z,1.50
2023-07-27T03:51:33.633Z,1.50
2023-07-27T03:54:03.793Z,1.60
2023-07-27T03:56:32.713Z,1.50
2023-07-27T03:59:03.003Z,1.70
2023-07-27T04:01:33.612Z,1.40
2023-07-27T04:04:03.105Z,1.70
2023-07-27T04:06:33.078Z,1.20
2023-07-27T04:09:01.620Z,1.30
2023-07-27T04:11:34.062Z,1.40
2023-07-27T04:14:04.115Z,1.20
2023-07-27T04:16:33.429Z,1.10
2023-07-27T04:19:02.513Z,1.40
2023-07-27T04:21:32.505Z,1.20
2023-07-27T04:24:02.975Z,1.30
2023-07-27T04:26:31.005Z,1.60
2023-07-27T04:28:59.423Z,1.00
2023-07-27T04:31:27.265Z,1.30
2023-07-27T04:33:55.108Z,1.30
2023-07-27T04:36:23.298Z,1.00
2023-07-27T04:38:51.131Z,1.30
2023-07-27T04:41:18.926Z,1.10
2023-07-27T04:43:46.720Z,1.30
2023-07-27T04:46:14.577Z,0.90
2023-07-27T04:48:42.410Z,1.10
2023-07-27T04:51:10.344Z,1.90
2023-07-27T04:53:38.292Z,1.40
2023-07-27T04:56:06.218Z,1.20
2023-07-27T04:58:34.126Z,1.40
2023-07-27T05:01:02.056Z,1.10
2023-07-27T05:03:29.926Z,1.20
2023-07-27T05:05:57.988Z,1.10
2023-07-27T05:08:25.759Z,0.90
2023-07-27T05:10:53.560Z,1.10
2023-07-27T05:13:21.552Z,1.20
2023-07-27T05:15:49.826Z,1.20
2023-07-27T05:18:17.765Z,1.20
2023-07-27T05:20:45.557Z,1.10
2023-07-27T05:23:13.375Z,1.40
2023-07-27T05:25:41.323Z,1.40
2023-07-27T05:28:09.371Z,1.00
2023-07-27T05:30:37.483Z,1.20
2023-07-27T05:33:05.637Z,0.90
2023-07-27T05:35:33.693Z,1.10
2023-07-27T05:38:02.385Z,0.80
2023-07-27T05:40:32.274Z,0.90
2023-07-27T05:43:00.721Z,0.90
2023-07-27T05:45:29.187Z,0.80
2023-07-27T05:47:57.350Z,0.90
2023-07-27T05:50:26.482Z,0.90
2023-07-27T05:52:54.440Z,0.80
2023-07-27T05:55:22.348Z,0.90
2023-07-27T05:57:50.373Z,1.20
2023-07-27T06:00:18.540Z,0.90
2023-07-27T06:02:46.412Z,0.70
2023-07-27T06:05:15.188Z,0.80
2023-07-27T06:07:43.562Z,0.80
2023-07-27T06:10:13.072Z,0.70
2023-07-27T06:12:41.376Z,0.90
2023-07-27T06:15:11.062Z,0.80
2023-07-27T06:17:39.065Z,0.80
2023-07-27T06:20:07.701Z,0.70
2023-07-27T06:22:35.846Z,1.40
2023-07-27T06:25:03.951Z,0.90
2023-07-27T06:27:32.005Z,0.90
2023-07-27T06:30:01.056Z,0.90
2023-07-27T06:32:29.234Z,0.90
2023-07-27T06:34:57.078Z,1.10
2023-07-27T06:37:25.886Z,0.60
2023-07-27T06:39:55.251Z,0.60
2023-07-27T06:42:23.368Z,0.80
2023-07-27T06:44:51.127Z,1.00
2023-07-27T06:47:19.266Z,0.70
2023-07-27T06:49:47.515Z,0.80
2023-07-27T06:52:15.414Z,0.80
2023-07-27T06:54:43.364Z,0.60
2023-07-27T06:57:12.483Z,0.80
2023-07-27T06:59:40.428Z,0.80
2023-07-27T07:02:08.489Z,1.10
2023-07-27T07:04:38.740Z,0.90
2023-07-27T07:07:08.929Z,1.00
2023-07-27T07:09:37.310Z,0.80
2023-07-27T07:12:07.659Z,0.60
2023-07-27T07:14:35.566Z,0.40
2023-07-27T07:17:04.075Z,1.00
2023-07-27T07:19:32.181Z,0.60
2023-07-27T07:22:00.326Z,0.70
2023-07-27T07:24:28.417Z,0.50
2023-07-27T07:26:57.096Z,1.30
2023-07-27T07:29:24.990Z,0.60
2023-07-27T07:31:52.865Z,0.60
2023-07-27T07:34:20.728Z,0.60
2023-07-27T07:36:48.796Z,0.50
2023-07-27T07:39:16.672Z,1.00
2023-07-27T07:41:44.494Z,0.90
2023-07-27T07:44:12.477Z,0.80
2023-07-27T07:46:41.787Z,0.50
2023-07-27T07:49:10.088Z,0.60
2023-07-27T07:51:38.195Z,0.70
2023-07-27T07:54:09.262Z,0.60
2023-07-27T07:56:37.708Z,0.80
2023-07-27T07:59:05.581Z,0.60
2023-07-27T08:01:33.451Z,0.60
2023-07-27T08:04:01.783Z,0.80
2023-07-27T08:06:29.761Z,1.60
2023-07-27T08:08:57.610Z,0.60
2023-07-27T08:11:25.822Z,0.70
2023-07-27T08:13:53.823Z,0.90
2023-07-27T08:16:21.882Z,0.90
2023-07-27T08:18:49.693Z,0.50
2023-07-27T08:21:18.004Z,0.50
2023-07-27T08:23:45.934Z,0.70
2023-07-27T08:26:14.045Z,0.60
2023-07-27T08:28:42.551Z,0.60
2023-07-27T08:31:10.480Z,0.70
2023-07-27T08:33:38.523Z,0.50
2023-07-27T08:36:06.726Z,0.40
2023-07-27T08:38:34.636Z,0.80
2023-07-27T08:41:02.775Z,0.40
2023-07-27T08:43:31.091Z,0.60
2023-07-27T08:46:00.577Z,0.30
2023-07-27T08:48:29.963Z,0.60
2023-07-27T08:50:58.823Z,0.60
2023-07-27T08:53:27.493Z,0.40
2023-07-27T08:55:55.475Z,0.50
2023-07-27T08:58:23.352Z,0.40
2023-07-27T09:00:51.402Z,0.60
2023-07-27T09:03:19.437Z,0.60
2023-07-27T09:06:01.189Z,0.40
2023-07-27T09:08:30.590Z,0.40
2023-07-27T09:11:09.851Z,0.60
2023-07-27T09:13:41.239Z,0.50
2023-07-27T09:16:10.218Z,0.70
2023-07-27T09:18:39.419Z,0.80
2023-07-27T09:21:11.809Z,0.80
2023-07-27T09:23:40.049Z,3.00
2023-07-27T09:26:12.219Z,0.60
2023-07-27T09:28:40.258Z,0.50
2023-07-27T09:31:08.180Z,0.50
2023-07-27T09:33:36.102Z,0.70
2023-07-27T09:36:08.810Z,0.30
2023-07-27T09:38:37.163Z,0.30
2023-07-27T09:41:09.406Z,0.60
2023-07-27T09:43:42.999Z,0.50
2023-07-27T09:46:11.099Z,0.70
2023-07-27T09:48:39.540Z,0.80
2023-07-27T09:51:09.194Z,0.70
2023-07-27T09:53:38.713Z,0.60
2023-07-27T09:56:08.064Z,0.90
2023-07-27T09:58:38.144Z,0.50
2023-07-27T10:01:06.122Z,0.40
2023-07-27T10:03:34.832Z,0.70
2023-07-27T10:06:04.889Z,0.60
2023-07-27T10:08:36.500Z,0.50
2023-07-27T10:11:04.423Z,0.90
2023-07-27T10:13:39.256Z,0.40
2023-07-27T10:16:11.002Z,0.40
2023-07-27T10:18:48.132Z,0.50
2023-07-27T10:21:24.017Z,0.40
2023-07-27T10:24:00.913Z,0.60
2023-07-27T10:26:52.448Z,1.20
2023-07-27T10:29:27.717Z,0.50
2023-07-27T10:32:12.317Z,0.30
2023-07-27T10:34:42.338Z,0.80
2023-07-27T10:37:13.809Z,0.40
2023-07-27T10:39:51.770Z,0.50
2023-07-27T10:42:24.058Z,0.50
2023-07-27T10:45:01.629Z,0.50
2023-07-27T10:47:39.139Z,0.60
2023-07-27T10:50:08.475Z,0.80
2023-07-27T10:52:38.661Z,0.60
2023-07-27T10:55:08.105Z,0.70
2023-07-27T10:57:36.998Z,0.50
2023-07-27T11:00:05.997Z,0.50
2023-07-27T11:02:36.996Z,0.50
2023-07-27T11:05:08.783Z,0.50
2023-07-27T11:07:44.297Z,0.70
2023-07-27T11:10:17.304Z,0.80
2023-07-27T11:12:56.496Z,0.40
2023-07-27T11:15:26.295Z,0.40
2023-07-27T11:17:58.320Z,0.60
2023-07-27T11:20:30.203Z,0.50
2023-07-27T11:22:59.882Z,0.90
2023-07-27T11:25:33.773Z,0.50
2023-07-27T11:28:04.850Z,0.40
2023-07-27T11:30:37.653Z,0.30
2023-07-27T11:33:07.346Z,0.50
2023-07-27T11:35:46.612Z,0.40
2023-07-27T11:38:14.850Z,0.60
2023-07-27T11:40:49.543Z,0.50
2023-07-27T11:43:17.818Z,0.40
2023-07-27T11:45:46.439Z,0.50
2023-07-27T11:48:15.059Z,0.50
2023-07-27T11:50:44.516Z,0.70
2023-07-27T11:53:19.900Z,0.50
2023-07-27T11:55:57.804Z,0.60
2023-07-27T11:58:30.912Z,0.60
2023-07-27T12:00:58.780Z,0.50
2023-07-27T12:03:26.834Z,0.40
2023-07-27T12:05:56.285Z,0.40
2023-07-27T12:11:04.485Z,0.50
2023-07-27T12:23:42.503Z,0.50
2023-07-27T12:28:43.327Z,0.60
2023-07-27T12:33:42.750Z,0.80
2023-07-27T12:36:11.133Z,0.40
2023-07-27T12:41:09.821Z,0.40
2023-07-27T12:43:37.783Z,0.60
2023-07-27T12:46:06.308Z,0.60
2023-07-27T12:48:34.312Z,0.50
2023-07-27T12:51:02.114Z,0.60
2023-07-27T12:53:30.050Z,0.50
2023-07-27T12:55:59.278Z,0.50
2023-07-27T12:58:27.129Z,0.50
2023-07-27T13:00:54.975Z,0.60
2023-07-27T13:03:22.987Z,0.40
2023-07-27T13:05:50.900Z,0.50
2023-07-27T13:08:21.043Z,0.70
2023-07-27T13:10:49.551Z,0.60
2023-07-27T13:13:17.843Z,0.70
2023-07-27T13:15:48.670Z,0.50
2023-07-27T13:18:16.751Z,0.70
2023-07-27T13:20:44.832Z,0.50
2023-07-27T13:23:12.693Z,0.80
2023-07-27T13:25:40.589Z,0.60
2023-07-27T13:28:08.536Z,0.60
2023-07-27T13:30:42.294Z,0.50
2023-07-27T13:33:12.534Z,0.50
2023-07-27T13:35:40.500Z,0.50
2023-07-27T13:38:08.410Z,0.70
2023-07-27T13:40:36.562Z,0.60
2023-07-27T13:43:04.394Z,0.50
2023-07-27T13:45:32.282Z,0.50
2023-07-27T13:48:09.436Z,0.70
2023-07-27T13:50:39.232Z,0.50
2023-07-27T13:53:07.233Z,0.70
2023-07-27T13:55:35.103Z,0.60
2023-07-27T13:58:03.183Z,0.70
2023-07-27T14:00:31.045Z,0.70
2023-07-27T14:02:59.010Z,1.20
2023-07-27T14:05:27.069Z,1.30
2023-07-27T14:07:55.110Z,0.90
2023-07-27T14:10:23.102Z,1.00
2023-07-27T14:12:50.968Z,1.20
2023-07-27T14:15:19.184Z,1.00
2023-07-27T14:17:47.245Z,0.70
2023-07-27T14:20:16.465Z,0.60
2023-07-27T14:22:44.478Z,1.20
2023-07-27T14:25:12.518Z,0.60
2023-07-27T14:27:40.393Z,1.00
2023-07-27T14:30:08.827Z,0.90
2023-07-27T14:32:36.974Z,0.70
2023-07-27T14:35:05.462Z,0.70
2023-07-27T14:37:33.290Z,0.70
2023-07-27T14:40:01.270Z,0.80
2023-07-27T14:42:29.161Z,1.00
2023-07-27T14:44:57.309Z,0.80
2023-07-27T14:47:25.219Z,0.60
2023-07-27T14:52:23.918Z,0.70
2023-07-27T14:54:52.197Z,0.60
2023-07-27T14:57:20.017Z,0.70
2023-07-27T14:59:58.091Z,0.70
2023-07-27T15:02:45.725Z,0.70
2023-07-27T15:05:14.445Z,0.60
2023-07-27T15:07:42.616Z,0.80
2023-07-27T15:10:29.098Z,0.90
2023-07-27T15:12:59.886Z,0.70
2023-07-27T15:15:29.410Z,0.70
2023-07-27T15:17:57.964Z,1.20
2023-07-27T15:20:26.143Z,0.90
2023-07-27T15:22:55.009Z,0.70
2023-07-27T15:25:23.216Z,0.70
2023-07-27T15:27:51.077Z,0.80
2023-07-27T15:30:19.030Z,0.80
2023-07-27T15:32:46.989Z,1.20
2023-07-27T15:35:15.019Z,0.80
2023-07-27T15:37:42.934Z,0.70
2023-07-27T15:40:11.355Z,0.90
2023-07-27T15:42:39.198Z,0.80
2023-07-27T15:45:08.023Z,0.50
2023-07-27T15:47:35.936Z,0.90
2023-07-27T15:50:04.335Z,0.80
2023-07-27T15:52:32.273Z,0.70
2023-07-27T15:55:00.194Z,1.00
2023-07-27T15:57:28.228Z,0.60
2023-07-27T16:00:02.633Z,0.50
2023-07-27T16:02:30.533Z,0.60
2023-07-27T16:04:58.568Z,0.90
2023-07-27T16:07:26.540Z,0.80
2023-07-27T16:10:03.561Z,0.80
2023-07-27T16:12:31.534Z,1.10
2023-07-27T16:14:59.445Z,0.70
2023-07-27T16:17:27.868Z,0.70
2023-07-27T16:19:56.185Z,0.90
2023-07-27T16:22:24.368Z,0.80
2023-07-27T16:24:53.624Z,0.80
2023-07-27T16:27:22.977Z,0.80
2023-07-27T16:29:50.959Z,0.80
2023-07-27T16:32:19.186Z,1.00
2023-07-27T16:34:47.219Z,0.80
2023-07-27T16:37:15.037Z,0.90
2023-07-27T16:39:43.006Z,1.00
2023-07-27T16:42:10.963Z,0.80
2023-07-27T16:44:38.867Z,0.90
2023-07-27T16:47:06.955Z,1.00
2023-07-27T16:49:34.864Z,1.00
2023-07-27T16:52:02.895Z,0.90
2023-07-27T16:54:30.788Z,0.80
2023-07-27T16:56:59.276Z,0.90
2023-07-27T16:59:27.284Z,1.00
2023-07-27T17:01:55.165Z,1.10
2023-07-27T17:04:23.028Z,1.00
2023-07-27T17:06:50.972Z,0.80
2023-07-27T17:09:18.846Z,0.90
2023-07-27T17:11:46.807Z,1.10
2023-07-27T17:14:14.753Z,0.90
2023-07-27T17:16:44.228Z,1.00
2023-07-27T17:19:12.158Z,1.10
2023-07-27T17:21:40.136Z,1.30
2023-07-27T17:24:09.673Z,1.70
2023-07-27T17:26:38.424Z,1.00
2023-07-27T17:29:06.486Z,1.50
2023-07-27T17:31:35.138Z,1.20
2023-07-27T17:34:03.156Z,1.20
2023-07-27T17:36:31.206Z,1.20
2023-07-27T17:38:59.226Z,1.20
2023-07-27T17:41:27.443Z,1.60
2023-07-27T17:43:56.126Z,1.20
2023-07-27T17:46:24.298Z,1.60
2023-07-27T17:48:52.367Z,1.30
2023-07-27T17:51:20.345Z,1.30
2023-07-27T17:53:48.330Z,1.10
2023-07-27T17:56:16.204Z,1.20
2023-07-27T17:58:44.241Z,1.50
2023-07-27T18:01:18.410Z,3.20
2023-07-27T18:03:49.906Z,1.60
2023-07-27T18:06:18.304Z,1.50
2023-07-27T18:08:46.334Z,2.40
2023-07-27T18:11:17.326Z,1.70
2023-07-27T18:13:54.638Z,1.30
2023-07-27T18:16:22.926Z,1.50
2023-07-27T18:18:55.067Z,1.50
2023-07-27T18:21:25.699Z,1.40
2023-07-27T18:23:53.950Z,1.40
2023-07-27T18:26:22.577Z,1.20
2023-07-27T18:28:58.810Z,1.60
2023-07-27T18:31:29.194Z,1.30
2023-07-27T18:33:59.706Z,1.60
2023-07-27T18:36:27.909Z,1.90
2023-07-27T18:38:56.102Z,2.40
2023-07-27T18:41:24.224Z,2.40
2023-07-27T18:43:52.555Z,2.00
2023-07-27T18:46:23.574Z,1.40
2023-07-27T18:49:04.034Z,1.50
2023-07-27T18:51:46.489Z,1.60
2023-07-27T18:54:14.875Z,1.60
2023-07-27T18:56:42.785Z,1.40
2023-07-27T18:59:11.184Z,1.70
2023-07-27T19:01:39.137Z,1.60
2023-07-27T19:04:07.180Z,1.90
2023-07-27T19:06:35.394Z,2.80
2023-07-27T19:09:05.429Z,2.80
2023-07-27T19:11:34.227Z,2.00
2023-07-27T19:14:02.808Z,1.90
2023-07-27T19:16:30.756Z,1.70
2023-07-27T19:18:58.646Z,1.70
2023-07-27T19:21:27.261Z,1.90
2023-07-27T19:23:55.199Z,2.00
2023-07-27T19:26:24.128Z,2.10
2023-07-27T19:28:52.087Z,2.00
2023-07-27T19:31:25.300Z,1.80
2023-07-27T19:33:53.339Z,1.80
2023-07-27T19:36:25.966Z,1.80
2023-07-27T19:38:57.984Z,1.80
2023-07-27T19:41:29.036Z,1.90
2023-07-27T19:43:57.435Z,1.90
2023-07-27T19:46:25.432Z,2.00
2023-07-27T19:48:54.335Z,2.20
2023-07-27T19:51:24.516Z,1.80
2023-07-27T19:53:52.443Z,2.00
2023-07-27T19:56:20.449Z,1.80
2023-07-27T19:58:49.745Z,1.80
2023-07-27T20:01:17.986Z,1.90
2023-07-27T20:03:48.807Z,1.80
2023-07-27T20:06:27.090Z,2.20
2023-07-27T20:08:56.633Z,1.70
2023-07-27T20:11:24.781Z,1.90
2023-07-27T20:13:52.730Z,2.00
2023-07-27T20:16:21.081Z,1.60
2023-07-27T20:18:48.868Z,1.40
2023-07-27T20:21:17.514Z,2.00
2023-07-27T20:23:45.433Z,1.90
2023-07-27T20:26:13.399Z,1.80
2023-07-27T20:28:41.329Z,2.10
2023-07-27T20:31:09.995Z,2.00
2023-07-27T20:33:40.758Z,1.70
2023-07-27T20:36:08.643Z,2.00
2023-07-27T20:38:38.131Z,2.50
2023-07-27T20:41:08.962Z,3.80
2023-07-27T20:43:36.963Z,2.20
2023-07-27T20:46:04.970Z,2.00
2023-07-27T20:48:35.650Z,2.00
2023-07-27T20:51:06.267Z,1.80
2023-07-27T20:53:37.576Z,1.80
2023-07-27T20:56:16.707Z,1.70
2023-07-27T20:58:47.054Z,2.00
2023-07-27T21:01:15.583Z,2.20
2023-07-27T21:03:43.411Z,2.20
2023-07-27T21:06:11.566Z,1.70
2023-07-27T21:08:40.201Z,2.10
2023-07-27T21:11:09.709Z,1.90
2023-07-27T21:13:39.188Z,1.90
2023-07-27T21:16:10.097Z,2.00
2023-07-27T21:18:38.936Z,1.80
2023-07-27T21:21:19.494Z,3.40
2023-07-27T21:23:49.177Z,2.10
2023-07-27T21:26:18.556Z,2.00
2023-07-27T21:28:47.568Z,2.20
2023-07-27T21:31:16.006Z,2.00
2023-07-27T21:33:44.211Z,2.10
2023-07-27T21:36:12.003Z,2.00
2023-07-27T21:38:39.883Z,2.30
2023-07-27T21:41:11.437Z,2.10
2023-07-27T21:43:40.485Z,2.10
2023-07-27T21:46:09.526Z,1.90
2023-07-27T21:48:38.787Z,1.90
2023-07-27T21:51:07.035Z,2.10
2023-07-27T21:53:34.906Z,2.50
2023-07-27T21:56:02.803Z,2.10
2023-07-27T21:58:30.636Z,1.90
2023-07-27T22:00:58.659Z,2.20
2023-07-27T22:03:26.550Z,2.50
2023-07-27T22:05:54.592Z,1.90
2023-07-27T22:08:22.442Z,2.10
2023-07-27T22:10:50.326Z,2.10
2023-07-27T22:13:18.108Z,1.70
2023-07-27T22:15:46.055Z,1.70
2023-07-27T22:18:13.919Z,2.10
2023-07-27T22:20:43.188Z,1.90
2023-07-27T22:23:11.848Z,2.00
2023-07-27T22:25:44.777Z,2.40
2023-07-27T22:28:13.104Z,1.90
2023-07-27T22:30:48.168Z,2.10
2023-07-27T22:33:16.755Z,2.10
2023-07-27T22:35:47.128Z,1.60
2023-07-27T22:38:16.160Z,1.60
2023-07-27T22:40:59.320Z,1.70
2023-07-27T22:43:27.227Z,1.90
2023-07-27T22:45:57.760Z,1.80
2023-07-27T22:48:26.351Z,1.80
2023-07-27T22:50:54.414Z,2.00
2023-07-27T22:53:22.273Z,1.80
2023-07-27T22:55:51.887Z,1.80
2023-07-27T22:58:21.836Z,1.90
2023-07-27T23:00:49.908Z,1.90
2023-07-27T23:03:17.779Z,1.90
2023-07-27T23:05:45.647Z,1.90
2023-07-27T23:08:13.414Z,2.30
2023-07-27T23:10:41.308Z,2.10
2023-07-27T23:13:09.080Z,2.00
2023-07-27T23:15:37.059Z,2.20
2023-07-27T23:18:05.216Z,2.10
2023-07-27T23:20:34.147Z,2.00
2023-07-27T23:23:02.429Z,2.10
2023-07-27T23:25:30.289Z,2.00
2023-07-27T23:27:58.428Z,2.20
2023-07-27T23:30:26.294Z,1.70
2023-07-27T23:32:54.231Z,1.90
2023-07-27T23:35:22.248Z,1.80
2023-07-27T23:37:50.839Z,1.50
2023-07-27T23:40:18.861Z,1.80
2023-07-27T23:42:46.723Z,1.80
2023-07-27T23:45:14.704Z,2.20
2023-07-27T23:47:42.678Z,2.20
2023-07-27T23:50:10.603Z,1.90
2023-07-27T23:52:38.511Z,1.90
2023-07-27T23:55:06.828Z,2.00
2023-07-27T23:57:34.694Z,2.40
